Observation data for Slaton on 01/19/2020      Previous  Date  Next       Current Mesonet Observations  Soil Data  Daily Summary Page  Observations in Plain Language
KSLS 190600Z 10005KT M00/M05 A3045 RMK A01 T10011047  RH  072%=      5-min Rain = 0
KSLS 190605Z 10005KT M00/M05 A3046 RMK A01 T10031047  RH  073%=      5-min Rain = 0
KSLS 190610Z 10005KT M00/M05 A3045 RMK A01 T10021048  RH  072%=      5-min Rain = 0
KSLS 190615Z 10005KT M00/M05 A3045 RMK A01 T10021049  RH  071%=      5-min Rain = 0
KSLS 190620Z 10005KT M00/M05 A3045 RMK A01 T10021049  RH  071%=      5-min Rain = 0
KSLS 190625Z 10005KT M00/M05 A3045 RMK A01 T10021049  RH  071%=      5-min Rain = 0
KSLS 190630Z 10005KT M00/M05 A3045 RMK A01 T10021050  RH  071%=      5-min Rain = 0
KSLS 190635Z 11005KT 00/05 A3045 RMK A01 T00-00-51  RH  069%=      5-min Rain = 0
KSLS 190640Z 11005KT M00/M06 A3045 RMK A01 T10021055  RH  068%=      5-min Rain = 0
KSLS 190645Z 10005KT M00/M05 A3045 RMK A01 T10021053  RH  069%=      5-min Rain = 0
KSLS 190650Z 10005KT M00/M05 A3045 RMK A01 T10021052  RH  070%=      5-min Rain = 0
KSLS 190655Z 10006KT M00/M05 A3045 RMK A01 T10031053  RH  070%=      5-min Rain = 0
KSLS 190700Z 10005KT M00/M05 A3045 RMK A01 T10021053  RH  069%=      5-min Rain = 0
KSLS 190705Z 10005KT M00/M05 A3045 RMK A01 T10031054  RH  069%=      5-min Rain = 0
KSLS 190710Z 10005KT M00/M05 A3045 RMK A01 T10041054  RH  070%=      5-min Rain = 0
KSLS 190715Z 10005KT M00/M05 A3045 RMK A01 T10041054  RH  070%=      5-min Rain = 0
KSLS 190720Z 10005KT M00/M05 A3045 RMK A01 T10041053  RH  070%=      5-min Rain = 0
KSLS 190725Z 10005KT M01/M05 A3045 RMK A01 T10061054  RH  071%=      5-min Rain = 0
KSLS 190730Z 10005KT M01/M06 A3045 RMK A01 T10061055  RH  070%=      5-min Rain = 0
KSLS 190735Z 11005KT M01/M06 A3045 RMK A01 T10061057  RH  069%=      5-min Rain = 0
KSLS 190740Z 11006KT M01/M06 A3045 RMK A01 T10071059  RH  069%=      5-min Rain = 0
KSLS 190745Z 11005KT M01/M06 A3045 RMK A01 T10071058  RH  069%=      5-min Rain = 0
KSLS 190750Z 11005KT M01/M06 A3045 RMK A01 T10071057  RH  069%=      5-min Rain = 0
KSLS 190755Z 11005KT M01/M06 A3045 RMK A01 T10071058  RH  069%=      5-min Rain = 0
KSLS 190800Z 10005KT M01/M06 A3045 RMK A01 T10091059  RH  069%=      5-min Rain = 0
KSLS 190805Z 10004KT M01/M06 A3045 RMK A01 T10091057  RH  071%=      5-min Rain = 0
KSLS 190810Z 10004KT M01/M06 A3045 RMK A01 T10091057  RH  071%=      5-min Rain = 0
KSLS 190815Z 10003KT M01/M06 A3045 RMK A01 T10091057  RH  071%=      5-min Rain = 0
KSLS 190820Z 09003KT M01/M06 A3045 RMK A01 T10101058  RH  071%=      5-min Rain = 0
KSLS 190825Z 09003KT M01/M06 A3045 RMK A01 T10111058  RH  071%=      5-min Rain = 0
KSLS 190830Z 09004KT M01/M06 A3045 RMK A01 T10101059  RH  070%=      5-min Rain = 0
KSLS 190835Z 09004KT M01/M06 A3045 RMK A01 T10111059  RH  071%=      5-min Rain = 0
KSLS 190840Z 08004KT M01/M06 A3045 RMK A01 T10141061  RH  071%=      5-min Rain = 0
KSLS 190845Z 08004KT M02/M06 A3045 RMK A01 T10151063  RH  070%=      5-min Rain = 0
KSLS 190850Z 08005KT M02/M07 A3045 RMK A01 T10151065  RH  070%=      5-min Rain = 0
KSLS 190855Z 08005KT M02/M07 A3045 RMK A01 T10171066  RH  070%=      5-min Rain = 0
KSLS 190900Z 07004KT M02/M07 A3045 RMK A01 T10191066  RH  071%=      5-min Rain = 0
KSLS 190905Z 09004KT M02/M07 A3045 RMK A01 T10181066  RH  071%=      5-min Rain = 0
KSLS 190910Z 10003KT M02/M06 A3045 RMK A01 T10171064  RH  072%=      5-min Rain = 0
KSLS 190915Z 10003KT M02/M06 A3045 RMK A01 T10161060  RH  073%=      5-min Rain = 0
KSLS 190920Z 08003KT M02/M06 A3045 RMK A01 T10151061  RH  072%=      5-min Rain = 0
KSLS 190925Z 08003KT M02/M06 A3045 RMK A01 T10161060  RH  072%=      5-min Rain = 0
KSLS 190930Z 10003KT M02/M06 A3045 RMK A01 T10161061  RH  072%=      5-min Rain = 0
KSLS 190935Z 11003KT M02/M06 A3045 RMK A01 T10151061  RH  072%=      5-min Rain = 0
KSLS 190940Z 12003KT M02/M07 A3045 RMK A01 T10151065  RH  070%=      5-min Rain = 0
KSLS 190945Z 12004KT M02/M07 A3045 RMK A01 T10171065  RH  071%=      5-min Rain = 0
KSLS 190950Z 12003KT M02/M06 A3045 RMK A01 T10171064  RH  071%=      5-min Rain = 0
KSLS 190955Z 11003KT M02/M07 A3045 RMK A01 T10171065  RH  070%=      5-min Rain = 0
KSLS 191000Z 12002KT M02/M07 A3045 RMK A01 T10171066  RH  070%=      5-min Rain = 0
KSLS 191005Z 13002KT M02/M07 A3045 RMK A01 T10161066  RH  070%=      5-min Rain = 0
KSLS 191010Z 13002KT M02/M07 A3045 RMK A01 T10171067  RH  070%=      5-min Rain = 0
KSLS 191015Z 11003KT M02/M07 A3045 RMK A01 T10181067  RH  070%=      5-min Rain = 0
KSLS 191020Z 10002KT M02/M07 A3046 RMK A01 T10191069  RH  069%=      5-min Rain = 0
KSLS 191025Z 10001KT M02/M07 A3046 RMK A01 T10201069  RH  070%=      5-min Rain = 0
KSLS 191030Z 06002KT M02/M07 A3046 RMK A01 T10191068  RH  070%=      5-min Rain = 0
KSLS 191035Z 07003KT M02/M07 A3046 RMK A01 T10181068  RH  069%=      5-min Rain = 0
KSLS 191040Z 08003KT M02/M07 A3046 RMK A01 T10171069  RH  068%=      5-min Rain = 0
KSLS 191045Z 09003KT M02/M07 A3046 RMK A01 T10171069  RH  068%=      5-min Rain = 0
KSLS 191050Z 12003KT M02/M07 A3045 RMK A01 T10191070  RH  069%=      5-min Rain = 0
KSLS 191055Z 13003KT M02/M07 A3046 RMK A01 T10191070  RH  069%=      5-min Rain = 0
KSLS 191100Z 12002KT M02/M07 A3046 RMK A01 T10201071  RH  069%=      5-min Rain = 0
KSLS 191105Z 12002KT M02/M07 A3046 RMK A01 T10201070  RH  070%=      5-min Rain = 0
KSLS 191110Z 12002KT M02/M07 A3046 RMK A01 T10201070  RH  069%=      5-min Rain = 0
KSLS 191115Z 10002KT M02/M07 A3046 RMK A01 T10211071  RH  069%=      5-min Rain = 0
KSLS 191120Z 06002KT M02/M07 A3046 RMK A01 T10201069  RH  070%=      5-min Rain = 0
KSLS 191125Z 07001KT M02/M07 A3046 RMK A01 T10211069  RH  070%=      5-min Rain = 0
KSLS 191130Z 09001KT M02/M07 A3046 RMK A01 T10231071  RH  070%=      5-min Rain = 0
KSLS 191135Z 12002KT M02/M07 A3046 RMK A01 T10241069  RH  072%=      5-min Rain = 0
KSLS 191140Z 12002KT M02/M07 A3046 RMK A01 T10241070  RH  071%=      5-min Rain = 0
KSLS 191145Z 12002KT M02/M07 A3046 RMK A01 T10241067  RH  073%=      5-min Rain = 0
KSLS 191150Z 12002KT M02/M07 A3046 RMK A01 T10231066  RH  073%=      5-min Rain = 0
KSLS 191155Z 12003KT M02/M07 A3046 RMK A01 T10221069  RH  071%=      5-min Rain = 0
KSLS 191200Z 13003KT M02/M07 A3046 RMK A01 T10231069  RH  071%=      5-min Rain = 0
KSLS 191205Z 13003KT M02/M07 A3046 RMK A01 T10241070  RH  072%=      5-min Rain = 0
KSLS 191210Z 13003KT M03/M07 A3046 RMK A01 T10261068  RH  074%=      5-min Rain = 0
KSLS 191215Z 13003KT M03/M07 A3047 RMK A01 T10261069  RH  073%=      5-min Rain = 0
KSLS 191220Z 13003KT M03/M07 A3047 RMK A01 T10261069  RH  073%=      5-min Rain = 0
KSLS 191225Z 13003KT M03/M07 A3047 RMK A01 T10271070  RH  073%=      5-min Rain = 0
KSLS 191230Z 13004KT M03/M07 A3047 RMK A01 T10281069  RH  074%=      5-min Rain = 0
KSLS 191235Z 14004KT M03/M07 A3047 RMK A01 T10281069  RH  075%=      5-min Rain = 0
KSLS 191240Z 14004KT M03/M07 A3047 RMK A01 T10271069  RH  074%=      5-min Rain = 0
KSLS 191245Z 14003KT M03/M07 A3047 RMK A01 T10271069  RH  074%=      5-min Rain = 0
KSLS 191250Z 13003KT M03/M07 A3048 RMK A01 T10281070  RH  073%=      5-min Rain = 0
KSLS 191255Z 12001KT M03/M07 A3048 RMK A01 T10271068  RH  074%=      5-min Rain = 0
KSLS 191300Z 11001KT M03/M07 A3048 RMK A01 T10261066  RH  075%=      5-min Rain = 0
KSLS 191305Z 08002KT M03/M07 A3049 RMK A01 T10281068  RH  075%=      5-min Rain = 0
KSLS 191310Z 05004KT M03/M07 A3049 RMK A01 T10301069  RH  076%=      5-min Rain = 0
KSLS 191315Z 04002KT M03/M07 A3049 RMK A01 T10331069  RH  078%=      5-min Rain = 0
KSLS 191320Z 06002KT M04/M07 A3049 RMK A01 T10371070  RH  079%=      5-min Rain = 0
KSLS 191325Z 05002KT M04/M07 A305 RMK A01 T10371069  RH  079%=      5-min Rain = 0
KSLS 191330Z 05002KT M04/M07 A305 RMK A01 T10361069  RH  079%=      5-min Rain = 0
KSLS 191335Z 05002KT M04/M07 A305 RMK A01 T10351069  RH  079%=      5-min Rain = 0
KSLS 191340Z 06002KT M04/M07 A305 RMK A01 T10351069  RH  078%=      5-min Rain = 0
KSLS 191345Z 05003KT M03/M07 A305 RMK A01 T10321069  RH  077%=      5-min Rain = 0
KSLS 191350Z 05002KT M03/M07 A305 RMK A01 T10321069  RH  076%=      5-min Rain = 0
KSLS 191355Z 06002KT M03/M07 A305 RMK A01 T10321070  RH  076%=      5-min Rain = 0
KSLS 191400Z 06002KT M03/M07 A3051 RMK A01 T10311069  RH  076%=      5-min Rain = 0
KSLS 191405Z 04001KT M03/M07 A3051 RMK A01 T10291069  RH  075%=      5-min Rain = 0
KSLS 191410Z 06002KT M03/M07 A3051 RMK A01 T10271069  RH  074%=      5-min Rain = 0
KSLS 191415Z 06001KT M02/M07 A3051 RMK A01 T10231068  RH  072%=      5-min Rain = 0
KSLS 191420Z 08001KT M02/M07 A3052 RMK A01 T10211069  RH  071%=      5-min Rain = 0
KSLS 191425Z 10001KT M02/M07 A3051 RMK A01 T10151066  RH  069%=      5-min Rain = 0
KSLS 191430Z 12001KT M01/M06 A3052 RMK A01 T10061061  RH  067%=      5-min Rain = 0
KSLS 191435Z 07001KT M00/M06 A3052 RMK A01 T10031061  RH  065%=      5-min Rain = 0
KSLS 191440Z 05001KT M01/M06 A3052 RMK A01 T10101063  RH  068%=      5-min Rain = 0
KSLS 191445Z 11002KT M01/M06 A3052 RMK A01 T10081063  RH  067%=      5-min Rain = 0
KSLS 191450Z 12002KT M01/M06 A3051 RMK A01 T10101060  RH  069%=      5-min Rain = 0
KSLS 191455Z 13003KT M01/M06 A3051 RMK A01 T10091059  RH  070%=      5-min Rain = 0
KSLS 191500Z 16004KT M01/M05 A3051 RMK A01 T10081054  RH  072%=      5-min Rain = 0
KSLS 191505Z 17005KT M01/M05 A3051 RMK A01 T10071049  RH  074%=      5-min Rain = 0
KSLS 191510Z 16006KT M00/M05 A3051 RMK A01 T10031050  RH  072%=      5-min Rain = 0
KSLS 191515Z 16006KT M00/M05 A3052 RMK A01 T10011053  RH  069%=      5-min Rain = 0
KSLS 191520Z 15005KT 00/M05 A3052 RMK A01 T00031052  RH  067%=      5-min Rain = 0
KSLS 191525Z 15006KT 01/M05 A3053 RMK A01 T00061051  RH  066%=      5-min Rain = 0
KSLS 191530Z 15006KT 01/M05 A3053 RMK A01 T00071053  RH  065%=      5-min Rain = 0
KSLS 191535Z 16006KT 01/M05 A3053 RMK A01 T00091052  RH  064%=      5-min Rain = 0
KSLS 191540Z 15006KT 01/M05 A3053 RMK A01 T00121052  RH  063%=      5-min Rain = 0
KSLS 191545Z 15008KT 01/M05 A3053 RMK A01 T00141053  RH  062%=      5-min Rain = 0
KSLS 191550Z 15008KT 01/M05 A3053 RMK A01 T00141054  RH  061%=      5-min Rain = 0
KSLS 191555Z 15007KT 02/M05 A3054 RMK A01 T00171052  RH  061%=      5-min Rain = 0
KSLS 191600Z 15007KT 02/M05 A3054 RMK A01 T00201051  RH  060%=      5-min Rain = 0
KSLS 191605Z 15007KT 02/M05 A3054 RMK A01 T00221053  RH  058%=      5-min Rain = 0
KSLS 191610Z 15007KT 02/M05 A3054 RMK A01 T00231051  RH  059%=      5-min Rain = 0
KSLS 191615Z 17008KT 02/M05 A3054 RMK A01 T00241051  RH  058%=      5-min Rain = 0
KSLS 191620Z 17009KT 03/M06 A3054 RMK A01 T00251055  RH  056%=      5-min Rain = 0
KSLS 191625Z 17009KT 03/M06 A3054 RMK A01 T00261055  RH  056%=      5-min Rain = 0
KSLS 191630Z 17009KT 03/M06 A3054 RMK A01 T00261059  RH  054%=      5-min Rain = 0
KSLS 191635Z 17008KT 03/M06 A3055 RMK A01 T00291057  RH  054%=      5-min Rain = 0
KSLS 191640Z 17008KT 03/M06 A3055 RMK A01 T00301055  RH  054%=      5-min Rain = 0
KSLS 191645Z 18009KT 03/M06 A3055 RMK A01 T00321056  RH  053%=      5-min Rain = 0
KSLS 191650Z 18009KT 04/M06 A3055 RMK A01 T00351056  RH  052%=      5-min Rain = 0
KSLS 191655Z 17010KT 04/M06 A3055 RMK A01 T00351060  RH  050%=      5-min Rain = 0
KSLS 191700Z 17011KT 04/M06 A3055 RMK A01 T00381061  RH  049%=      5-min Rain = 0
KSLS 191705Z 17011KT 04/M07 A3055 RMK A01 T00391065  RH  047%=      5-min Rain = 0
KSLS 191710Z 18011KT 04/M06 A3055 RMK A01 T00401064  RH  047%=      5-min Rain = 0
KSLS 191715Z 18012KT 04/M07 A3055 RMK A01 T00401070  RH  045%=      5-min Rain = 0
KSLS 191720Z 18013KT 04/M08 A3054 RMK A01 T00431075  RH  042%=      5-min Rain = 0
KSLS 191725Z 18013KT 05/M08 A3054 RMK A01 T00451078  RH  041%=      5-min Rain = 0
KSLS 191730Z 17013KT 05/M08 A3054 RMK A01 T00481082  RH  039%=      5-min Rain = 0
KSLS 191735Z 17012G17KT 05/M08 A3054 RMK A01 T00491082  RH  039%=      5-min Rain = 0
KSLS 191740Z 17013KT 05/M08 A3054 RMK A01 T00511081  RH  038%=      5-min Rain = 0
KSLS 191745Z 17013KT 05/M09 A3054 RMK A01 T00501085  RH  038%=      5-min Rain = 0
KSLS 191750Z 17012G17KT 05/M08 A3054 RMK A01 T00511080  RH  039%=      5-min Rain = 0
KSLS 191755Z 17012KT 05/M07 A3054 RMK A01 T00511074  RH  040%=      5-min Rain = 0
KSLS 191800Z 17010G15KT 05/M07 A3053 RMK A01 T00531071  RH  041%=      5-min Rain = 0
KSLS 191805Z 18010KT 05/M08 A3053 RMK A01 T00541075  RH  039%=      5-min Rain = 0
KSLS 191810Z 18010KT 05/M07 A3053 RMK A01 T00531074  RH  040%=      5-min Rain = 0
KSLS 191815Z 16009KT 06/M07 A3053 RMK A01 T00601069  RH  040%=      5-min Rain = 0
KSLS 191820Z 17009G14KT 06/M08 A3053 RMK A01 T00571077  RH  038%=      5-min Rain = 0
KSLS 191825Z 17011KT 06/M09 A3052 RMK A01 T00571086  RH  035%=      5-min Rain = 0
KSLS 191830Z 18011KT 06/M10 A3052 RMK A01 T00601096  RH  032%=      5-min Rain = 0
KSLS 191835Z 17011KT 06/M10 A3052 RMK A01 T00601097  RH  032%=      5-min Rain = 0
KSLS 191840Z 17011KT 06/M09 A3052 RMK A01 T00631090  RH  033%=      5-min Rain = 0
KSLS 191845Z 17009G14KT 07/M09 A3051 RMK A01 T00651094  RH  032%=      5-min Rain = 0
KSLS 191850Z 19008G14KT 07/M09 A3051 RMK A01 T00671090  RH  032%=      5-min Rain = 0
KSLS 191855Z 18009KT 07/M09 A3051 RMK A01 T00661090  RH  032%=      5-min Rain = 0
KSLS 191900Z 17010G15KT 07/M09 A305 RMK A01 T00681089  RH  032%=      5-min Rain = 0
KSLS 191905Z 17009G14KT 07/M09 A3049 RMK A01 T00711085  RH  032%=      5-min Rain = 0
KSLS 191910Z 18008KT 07/M09 A3049 RMK A01 T00711085  RH  032%=      5-min Rain = 0
KSLS 191915Z 18010KT 07/M09 A3049 RMK A01 T00721085  RH  032%=      5-min Rain = 0
KSLS 191920Z 18009G14KT 07/M09 A3049 RMK A01 T00691087  RH  032%=      5-min Rain = 0
KSLS 191925Z 18007G13KT 07/M08 A3048 RMK A01 T00711083  RH  033%=      5-min Rain = 0
KSLS 191930Z 19008G13KT 07/M09 A3048 RMK A01 T00711085  RH  032%=      5-min Rain = 0
KSLS 191935Z 17005KT 07/M09 A3048 RMK A01 T00711086  RH  032%=      5-min Rain = 0
KSLS 191940Z 20005KT 07/M08 A3048 RMK A01 T00741084  RH  032%=      5-min Rain = 0
KSLS 191945Z 20008KT 08/M08 A3047 RMK A01 T00761082  RH  032%=      5-min Rain = 0
KSLS 191950Z 20008KT 08/M08 A3047 RMK A01 T00771082  RH  032%=      5-min Rain = 0
KSLS 191955Z 20006KT 08/M09 A3047 RMK A01 T00751087  RH  031%=      5-min Rain = 0
KSLS 192000Z 17006KT 08/M08 A3046 RMK A01 T00751084  RH  032%=      5-min Rain = 0
KSLS 192005Z 17008KT 08/M08 A3046 RMK A01 T00791079  RH  032%=      5-min Rain = 0
KSLS 192010Z 17008KT 08/M08 A3045 RMK A01 T00791082  RH  031%=      5-min Rain = 0
KSLS 192015Z 16007G12KT 08/M08 A3045 RMK A01 T00801081  RH  031%=      5-min Rain = 0
KSLS 192020Z 16008KT 08/M08 A3045 RMK A01 T00821082  RH  031%=      5-min Rain = 0
KSLS 192025Z 16004KT 08/M09 A3045 RMK A01 T00801087  RH  030%=      5-min Rain = 0
KSLS 192030Z 18006KT 08/M09 A3045 RMK A01 T00811086  RH  030%=      5-min Rain = 0
KSLS 192035Z 18006G11KT 08/M09 A3045 RMK A01 T00791087  RH  030%=      5-min Rain = 0
KSLS 192040Z 16004KT 08/M08 A3045 RMK A01 T00821084  RH  030%=      5-min Rain = 0
KSLS 192045Z 15006G11KT 08/M08 A3045 RMK A01 T00841084  RH  030%=      5-min Rain = 0
KSLS 192050Z 16007KT 08/M09 A3045 RMK A01 T00841085  RH  030%=      5-min Rain = 0
KSLS 192055Z 16005G10KT 09/M08 A3045 RMK A01 T00851083  RH  030%=      5-min Rain = 0
KSLS 192100Z 15007G12KT 08/M09 A3044 RMK A01 T00831087  RH  029%=      5-min Rain = 0
KSLS 192105Z 16008KT 08/M08 A3044 RMK A01 T00831084  RH  030%=      5-min Rain = 0
KSLS 192110Z 16007KT 08/M09 A3043 RMK A01 T00821086  RH  030%=      5-min Rain = 0
KSLS 192115Z 18008KT 09/M08 A3044 RMK A01 T00861080  RH  030%=      5-min Rain = 0
KSLS 192120Z 19006KT 08/M09 A3044 RMK A01 T00841086  RH  029%=      5-min Rain = 0
KSLS 192125Z 18008KT 09/M08 A3044 RMK A01 T00861083  RH  030%=      5-min Rain = 0
KSLS 192130Z 17005KT 08/M09 A3044 RMK A01 T00831085  RH  030%=      5-min Rain = 0
KSLS 192135Z 17007KT 09/M09 A3044 RMK A01 T00851085  RH  030%=      5-min Rain = 0
KSLS 192140Z 15005KT 09/M09 A3044 RMK A01 T00851085  RH  029%=      5-min Rain = 0
KSLS 192145Z 13005KT 09/M08 A3044 RMK A01 T00851081  RH  030%=      5-min Rain = 0
KSLS 192150Z 14005KT 09/M08 A3044 RMK A01 T00861080  RH  030%=      5-min Rain = 0
KSLS 192155Z 16007KT 09/M08 A3043 RMK A01 T00851083  RH  030%=      5-min Rain = 0
KSLS 192200Z 18005KT 08/M09 A3043 RMK A01 T00831085  RH  030%=      5-min Rain = 0
KSLS 192205Z 14004KT 09/M08 A3044 RMK A01 T00851080  RH  030%=      5-min Rain = 0
KSLS 192210Z 11002KT 09/M08 A3044 RMK A01 T00861084  RH  029%=      5-min Rain = 0
KSLS 192215Z 13005KT 08/M08 A3043 RMK A01 T00841082  RH  030%=      5-min Rain = 0
KSLS 192220Z 13004KT 08/M08 A3043 RMK A01 T00831083  RH  030%=      5-min Rain = 0
KSLS 192225Z 14005KT 08/M08 A3043 RMK A01 T00841082  RH  030%=      5-min Rain = 0
KSLS 192230Z 11004KT 08/M08 A3043 RMK A01 T00811080  RH  031%=      5-min Rain = 0
KSLS 192235Z 15005KT 09/M08 A3043 RMK A01 T00851076  RH  032%=      5-min Rain = 0
KSLS 192240Z 15004KT 09/M08 A3044 RMK A01 T00851082  RH  030%=      5-min Rain = 0
KSLS 192245Z 14004KT 08/M08 A3044 RMK A01 T00831080  RH  031%=      5-min Rain = 0
KSLS 192250Z 15005KT 08/M08 A3043 RMK A01 T00831079  RH  031%=      5-min Rain = 0
KSLS 192255Z 15005KT 08/M08 A3044 RMK A01 T00831078  RH  032%=      5-min Rain = 0
KSLS 192300Z 14006KT 08/M08 A3043 RMK A01 T00811078  RH  032%=      5-min Rain = 0
KSLS 192305Z 13005KT 08/M08 A3043 RMK A01 T00811076  RH  032%=      5-min Rain = 0
KSLS 192310Z 12004KT 08/M08 A3044 RMK A01 T00791076  RH  033%=      5-min Rain = 0
KSLS 192315Z 14005KT 08/M08 A3044 RMK A01 T00791077  RH  033%=      5-min Rain = 0
KSLS 192320Z 13004KT 08/M07 A3044 RMK A01 T00781073  RH  034%=      5-min Rain = 0
KSLS 192325Z 12004KT 08/M08 A3044 RMK A01 T00761076  RH  034%=      5-min Rain = 0
KSLS 192330Z 12004KT 08/M08 A3044 RMK A01 T00761075  RH  034%=      5-min Rain = 0
KSLS 192335Z 13005KT 08/M08 A3044 RMK A01 T00751077  RH  034%=      5-min Rain = 0
KSLS 192340Z 12005KT 08/M08 A3044 RMK A01 T00751079  RH  033%=      5-min Rain = 0
KSLS 192345Z 13005KT 07/M07 A3044 RMK A01 T00741074  RH  035%=      5-min Rain = 0
KSLS 192350Z 15005KT 07/M07 A3044 RMK A01 T00721067  RH  037%=      5-min Rain = 0
KSLS 192355Z 14005KT 07/M06 A3044 RMK A01 T00681062  RH  039%=      5-min Rain = 0
KSLS 200000Z 15006KT 07/M06 A3044 RMK A01 T00651061  RH  040%=      5-min Rain = 0
KSLS 200005Z 15006KT 06/M06 A3044 RMK A01 T00611059  RH  043%=      5-min Rain = 0
KSLS 200010Z 15005KT 06/M06 A3044 RMK A01 T00571060  RH  043%=      5-min Rain = 0
KSLS 200015Z 15005KT 06/M06 A3045 RMK A01 T00551059  RH  044%=      5-min Rain = 0
KSLS 200020Z 15004KT 06/M06 A3045 RMK A01 T00551059  RH  044%=      5-min Rain = 0
KSLS 200025Z 15004KT 06/M06 A3045 RMK A01 T00551058  RH  044%=      5-min Rain = 0
KSLS 200030Z 15004KT 06/M06 A3045 RMK A01 T00551061  RH  043%=      5-min Rain = 0
KSLS 200035Z 15005KT 05/M06 A3045 RMK A01 T00531061  RH  044%=      5-min Rain = 0
KSLS 200040Z 15005KT 05/M06 A3045 RMK A01 T00501059  RH  046%=      5-min Rain = 0
KSLS 200045Z 15005KT 05/M05 A3045 RMK A01 T00461050  RH  051%=      5-min Rain = 0
KSLS 200050Z 15006KT 05/M04 A3045 RMK A01 T00461039  RH  054%=      5-min Rain = 0
KSLS 200055Z 15006KT 04/M04 A3045 RMK A01 T00441040  RH  055%=      5-min Rain = 0
KSLS 200100Z 15005KT 04/M04 A3046 RMK A01 T00421040  RH  056%=      5-min Rain = 0
KSLS 200105Z 14005KT 04/M04 A3046 RMK A01 T00411040  RH  056%=      5-min Rain = 0
KSLS 200110Z 12004KT 05/M05 A3046 RMK A01 T00451047  RH  052%=      5-min Rain = 0
KSLS 200115Z 12005KT 05/M05 A3046 RMK A01 T00501051  RH  048%=      5-min Rain = 0
KSLS 200120Z 12006KT 05/M05 A3046 RMK A01 T00511053  RH  047%=      5-min Rain = 0
KSLS 200125Z 12005KT 05/M05 A3046 RMK A01 T00491049  RH  050%=      5-min Rain = 0
KSLS 200130Z 12006KT 05/M05 A3047 RMK A01 T00471051  RH  050%=      5-min Rain = 0
KSLS 200135Z 12005KT 05/M05 A3047 RMK A01 T00461050  RH  050%=      5-min Rain = 0
KSLS 200140Z 10004KT 05/M05 A3047 RMK A01 T00451045  RH  053%=      5-min Rain = 0
KSLS 200145Z 11004KT 05/M05 A3047 RMK A01 T00481047  RH  051%=      5-min Rain = 0
KSLS 200150Z 12004KT 05/M05 A3047 RMK A01 T00491050  RH  049%=      5-min Rain = 0
KSLS 200155Z 13005KT 05/M05 A3047 RMK A01 T00471051  RH  050%=      5-min Rain = 0
KSLS 200200Z 12005KT 04/M05 A3048 RMK A01 T00441050  RH  051%=      5-min Rain = 0
KSLS 200205Z 12005KT 04/M05 A3048 RMK A01 T00441051  RH  051%=      5-min Rain = 0
KSLS 200210Z 12004KT 04/M05 A3048 RMK A01 T00431048  RH  052%=      5-min Rain = 0
KSLS 200215Z 12004KT 04/M05 A3048 RMK A01 T00411047  RH  054%=      5-min Rain = 0
KSLS 200220Z 12004KT 04/M04 A3048 RMK A01 T00391044  RH  055%=      5-min Rain = 0
KSLS 200225Z 12004KT 04/M04 A3049 RMK A01 T00371044  RH  056%=      5-min Rain = 0
KSLS 200230Z 12004KT 04/M04 A3049 RMK A01 T00371043  RH  056%=      5-min Rain = 0
KSLS 200235Z 12004KT 04/M05 A3049 RMK A01 T00391046  RH  055%=      5-min Rain = 0
KSLS 200240Z 12004KT 04/M05 A3049 RMK A01 T00401047  RH  054%=      5-min Rain = 0
KSLS 200245Z 12004KT 04/M04 A3049 RMK A01 T00381041  RH  057%=      5-min Rain = 0
KSLS 200250Z 13004KT 04/M04 A3049 RMK A01 T00361042  RH  057%=      5-min Rain = 0
KSLS 200255Z 13004KT 03/M04 A3049 RMK A01 T00341039  RH  060%=      5-min Rain = 0
KSLS 200300Z 13004KT 03/M04 A3049 RMK A01 T00341040  RH  059%=      5-min Rain = 0
KSLS 200305Z 13003KT 03/M04 A3049 RMK A01 T00341041  RH  059%=      5-min Rain = 0
KSLS 200310Z 13002KT 04/M04 A305 RMK A01 T00351040  RH  059%=      5-min Rain = 0
KSLS 200315Z 12003KT 04/M04 A305 RMK A01 T00371041  RH  058%=      5-min Rain = 0
KSLS 200320Z 11003KT 04/M04 A305 RMK A01 T00381042  RH  056%=      5-min Rain = 0
KSLS 200325Z 11003KT 04/M04 A305 RMK A01 T00401043  RH  055%=      5-min Rain = 0
KSLS 200330Z 10003KT 04/M04 A305 RMK A01 T00411041  RH  056%=      5-min Rain = 0
KSLS 200335Z 08003KT 04/M04 A305 RMK A01 T00401041  RH  056%=      5-min Rain = 0
KSLS 200340Z 08003KT 04/M05 A305 RMK A01 T00381045  RH  055%=      5-min Rain = 0
KSLS 200345Z 08003KT 04/M05 A305 RMK A01 T00371050  RH  053%=      5-min Rain = 0
KSLS 200350Z 09003KT 04/M05 A3051 RMK A01 T00371054  RH  052%=      5-min Rain = 0
KSLS 200355Z 09004KT 04/M05 A3051 RMK A01 T00371054  RH  052%=      5-min Rain = 0
KSLS 200400Z 09004KT 04/M05 A3051 RMK A01 T00381049  RH  054%=      5-min Rain = 0
KSLS 200405Z 09004KT 04/M05 A3051 RMK A01 T00361047  RH  055%=      5-min Rain = 0
KSLS 200410Z 10004KT 04/M04 A3051 RMK A01 T00351038  RH  059%=      5-min Rain = 0
KSLS 200415Z 09004KT 04/M04 A3051 RMK A01 T00361041  RH  058%=      5-min Rain = 0
KSLS 200420Z 09004KT 04/M04 A3051 RMK A01 T00361041  RH  058%=      5-min Rain = 0
KSLS 200425Z 09004KT 04/M04 A3051 RMK A01 T00361039  RH  059%=      5-min Rain = 0
KSLS 200430Z 09003KT 04/M04 A3051 RMK A01 T00351039  RH  059%=      5-min Rain = 0
KSLS 200435Z 09004KT 04/M04 A3052 RMK A01 T00351038  RH  059%=      5-min Rain = 0
KSLS 200440Z 09003KT 03/M04 A3052 RMK A01 T00341042  RH  058%=      5-min Rain = 0
KSLS 200445Z 09004KT 04/M04 A3052 RMK A01 T00351040  RH  059%=      5-min Rain = 0
KSLS 200450Z 09003KT 03/M04 A3052 RMK A01 T00341041  RH  059%=      5-min Rain = 0
KSLS 200455Z 10003KT 03/M04 A3052 RMK A01 T00341043  RH  057%=      5-min Rain = 0
KSLS 200500Z 11003KT 04/M05 A3052 RMK A01 T00361049  RH  054%=      5-min Rain = 0
KSLS 200505Z 10003KT 04/M05 A3052 RMK A01 T00361051  RH  053%=      5-min Rain = 0
KSLS 200510Z 09003KT 04/M05 A3052 RMK A01 T00351050  RH  054%=      5-min Rain = 0
KSLS 200515Z 09003KT 03/M05 A3052 RMK A01 T00341048  RH  056%=      5-min Rain = 0
KSLS 200520Z 09003KT 03/M05 A3052 RMK A01 T00331049  RH  056%=      5-min Rain = 0
KSLS 200525Z 09003KT 03/M05 A3052 RMK A01 T00321049  RH  056%=      5-min Rain = 0
KSLS 200530Z 11003KT 03/M04 A3052 RMK A01 T00331044  RH  058%=      5-min Rain = 0
KSLS 200535Z 11004KT 04/M05 A3052 RMK A01 T00351047  RH  056%=      5-min Rain = 0
KSLS 200540Z 12004KT 03/M05 A3052 RMK A01 T00331049  RH  056%=      5-min Rain = 0
KSLS 200545Z 12004KT 03/M05 A3052 RMK A01 T00321048  RH  056%=      5-min Rain = 0
KSLS 200550Z 11004KT 03/M04 A3053 RMK A01 T00311043  RH  059%=      5-min Rain = 0
KSLS 200555Z 10003KT 03/M04 A3053 RMK A01 T00311043  RH  059%=      5-min Rain = 0

Page generated in 0.0162 seconds.